createdAt,value
2022-09-04T00:00:19.451Z,19.84
2022-09-04T00:03:01.806Z,19.81
2022-09-04T00:05:35.339Z,19.81
2022-09-04T00:08:14.284Z,19.80
2022-09-04T00:10:57.731Z,19.81
2022-09-04T00:13:32.059Z,19.71
2022-09-04T00:16:21.473Z,19.59
2022-09-04T00:19:15.464Z,19.56
2022-09-04T00:22:01.139Z,19.55
2022-09-04T00:24:48.633Z,19.55
2022-09-04T00:27:27.795Z,19.51
2022-09-04T00:30:01.868Z,19.49
2022-09-04T00:32:44.562Z,19.49
2022-09-04T00:35:23.202Z,19.49
2022-09-04T00:37:59.073Z,19.48
2022-09-04T00:40:36.940Z,19.43
2022-09-04T00:43:33.552Z,19.35
2022-09-04T00:46:24.265Z,19.31
2022-09-04T00:49:05.848Z,19.30
2022-09-04T00:51:49.241Z,19.26
2022-09-04T00:54:21.699Z,19.23
2022-09-04T00:57:14.160Z,19.26
2022-09-04T01:00:16.059Z,19.24
2022-09-04T01:03:24.274Z,19.24
2022-09-04T01:06:25.115Z,19.15
2022-09-04T01:09:35.140Z,19.13
2022-09-04T01:12:14.464Z,19.09
2022-09-04T01:15:21.170Z,19.06
2022-09-04T01:18:12.587Z,19.08
2022-09-04T01:20:44.914Z,19.08
2022-09-04T01:23:32.689Z,19.06
2022-09-04T01:26:26.802Z,19.03
2022-09-04T01:29:21.463Z,18.96
2022-09-04T01:32:32.409Z,18.93
2022-09-04T01:35:29.616Z,18.94
2022-09-04T01:38:20.155Z,18.92
2022-09-04T01:41:01.256Z,18.88
2022-09-04T01:43:31.095Z,18.87
2022-09-04T01:46:28.470Z,18.85
2022-09-04T01:49:28.802Z,18.80
2022-09-04T01:52:08.828Z,18.80
2022-09-04T01:55:09.720Z,18.76
2022-09-04T01:57:48.167Z,18.73
2022-09-04T02:00:25.043Z,18.68
2022-09-04T02:03:16.370Z,18.63
2022-09-04T02:06:22.227Z,18.58
2022-09-04T02:09:12.875Z,18.50
2022-09-04T02:11:55.353Z,18.48
2022-09-04T02:14:46.522Z,18.49
2022-09-04T02:17:21.064Z,18.43
2022-09-04T02:20:02.599Z,18.41
2022-09-04T02:22:40.067Z,18.37
2022-09-04T02:25:23.591Z,18.32
2022-09-04T02:28:22.494Z,18.35
2022-09-04T02:31:34.629Z,18.30
2022-09-04T02:34:12.819Z,18.30
2022-09-04T02:37:17.343Z,18.31
2022-09-04T02:40:12.122Z,18.34
2022-09-04T02:43:24.839Z,18.36
2022-09-04T02:46:07.004Z,18.34
2022-09-04T02:48:50.009Z,18.28
2022-09-04T02:51:38.831Z,18.29
2022-09-04T02:54:21.920Z,18.22
2022-09-04T02:57:02.353Z,18.16
2022-09-04T02:59:40.784Z,18.12
2022-09-04T03:02:30.571Z,18.10
2022-09-04T03:05:03.087Z,18.09
2022-09-04T03:07:37.635Z,18.09
2022-09-04T03:10:18.103Z,18.10
2022-09-04T03:13:04.325Z,18.10
2022-09-04T03:15:48.372Z,18.03
2022-09-04T03:18:34.050Z,17.96
2022-09-04T03:21:16.621Z,17.96
2022-09-04T03:23:49.665Z,17.97
2022-09-04T03:26:34.900Z,17.96
2022-09-04T03:29:10.893Z,17.97
2022-09-04T03:31:52.388Z,17.98
2022-09-04T03:34:32.828Z,17.97
2022-09-04T03:37:30.635Z,17.98
2022-09-04T03:40:00.075Z,17.96
2022-09-04T03:42:41.836Z,17.98
2022-09-04T03:45:21.525Z,17.96
2022-09-04T03:48:05.860Z,17.91
2022-09-04T03:50:51.385Z,17.90
2022-09-04T03:53:42.586Z,17.88
2022-09-04T03:56:49.863Z,17.90
2022-09-04T03:59:28.350Z,17.87
2022-09-04T04:02:19.541Z,17.86
2022-09-04T04:05:23.703Z,17.79
2022-09-04T04:08:23.302Z,17.75
2022-09-04T04:11:15.589Z,17.77
2022-09-04T04:14:18.041Z,17.76
2022-09-04T04:17:02.793Z,17.72
2022-09-04T04:19:44.731Z,17.69
2022-09-04T04:22:53.328Z,17.65
2022-09-04T04:25:32.595Z,17.65
2022-09-04T04:28:27.019Z,17.64
2022-09-04T04:31:07.386Z,17.58
2022-09-04T04:33:42.567Z,17.53
2022-09-04T04:36:17.710Z,17.48
2022-09-04T04:39:05.750Z,17.48
2022-09-04T04:41:59.561Z,17.49
2022-09-04T04:45:09.045Z,17.49
2022-09-04T04:48:04.344Z,17.51
2022-09-04T04:50:42.690Z,17.46
2022-09-04T04:53:31.838Z,17.44
2022-09-04T04:56:29.107Z,17.48
2022-09-04T04:59:30.316Z,17.46
2022-09-04T05:02:31.415Z,17.52
2022-09-04T05:05:13.497Z,17.56
2022-09-04T05:07:52.513Z,17.57
2022-09-04T05:10:44.115Z,17.62
2022-09-04T05:13:55.891Z,17.68
2022-09-04T05:16:52.203Z,17.63
2022-09-04T05:19:35.280Z,17.70
2022-09-04T05:22:21.518Z,17.76
2022-09-04T05:25:01.121Z,17.80
2022-09-04T05:28:10.915Z,17.74
2022-09-04T05:30:52.345Z,17.74
2022-09-04T05:33:28.403Z,17.82
2022-09-04T05:36:33.760Z,17.82
2022-09-04T05:39:11.392Z,17.79
2022-09-04T05:42:06.704Z,17.81
2022-09-04T05:44:39.464Z,17.95
2022-09-04T05:47:20.811Z,18.12
2022-09-04T05:50:08.875Z,18.18
2022-09-04T05:52:50.448Z,18.27
2022-09-04T05:56:05.648Z,18.40
2022-09-04T05:58:56.780Z,18.52
2022-09-04T06:02:09.475Z,18.61
2022-09-04T06:05:04.987Z,18.69
2022-09-04T06:07:43.562Z,18.75
2022-09-04T06:10:33.440Z,18.79
2022-09-04T06:13:33.356Z,18.86
2022-09-04T06:16:21.474Z,18.95
2022-09-04T06:19:34.606Z,19.04
2022-09-04T06:22:29.731Z,19.13
2022-09-04T06:25:31.563Z,19.26
2022-09-04T06:28:23.762Z,19.38
2022-09-04T06:31:31.487Z,19.48
2022-09-04T06:34:27.198Z,19.51
2022-09-04T06:37:09.919Z,19.52
2022-09-04T06:39:53.817Z,19.57
2022-09-04T06:42:38.513Z,19.60
2022-09-04T06:45:33.811Z,19.65
2022-09-04T06:48:07.403Z,19.72
2022-09-04T06:50:48.822Z,19.78
2022-09-04T06:53:34.833Z,19.87
2022-09-04T06:56:29.079Z,19.95
2022-09-04T06:59:01.347Z,20.08
2022-09-04T07:02:06.429Z,20.20
2022-09-04T07:04:51.224Z,20.34
2022-09-04T07:07:39.802Z,20.45
2022-09-04T07:10:14.879Z,20.60
2022-09-04T07:13:09.294Z,20.76
2022-09-04T07:16:20.003Z,21.00
2022-09-04T07:19:17.356Z,21.26
2022-09-04T07:22:10.937Z,21.49
2022-09-04T07:25:09.193Z,21.73
2022-09-04T07:28:02.563Z,21.97
2022-09-04T07:30:37.548Z,22.23
2022-09-04T07:33:21.983Z,22.46
2022-09-04T07:36:01.599Z,22.69
2022-09-04T07:38:50.929Z,22.89
2022-09-04T07:41:31.411Z,23.14
2022-09-04T07:44:30.009Z,23.22
2022-09-04T07:47:19.986Z,23.36
2022-09-04T07:50:13.363Z,23.61
2022-09-04T07:53:22.609Z,23.78
2022-09-04T07:55:56.391Z,24.01
2022-09-04T07:58:49.456Z,24.15
2022-09-04T08:01:42.456Z,24.39
2022-09-04T08:04:44.422Z,24.59
2022-09-04T08:07:48.877Z,24.57
2022-09-04T08:10:24.300Z,24.61
2022-09-04T08:13:14.322Z,24.80
2022-09-04T08:16:04.963Z,24.91
2022-09-04T08:18:58.995Z,25.14
2022-09-04T08:21:46.572Z,25.24
2022-09-04T08:24:36.176Z,25.24
2022-09-04T08:27:30.664Z,25.43
2022-09-04T08:30:10.996Z,25.40
2022-09-04T08:33:13.063Z,25.57
2022-09-04T08:36:00.682Z,25.76
2022-09-04T08:39:06.616Z,25.82
2022-09-04T08:42:08.499Z,25.95
2022-09-04T08:45:19.936Z,26.14
2022-09-04T08:48:20.371Z,26.32
2022-09-04T08:51:15.039Z,26.58
2022-09-04T08:54:14.476Z,26.77
2022-09-04T08:56:50.227Z,26.90
2022-09-04T08:59:47.062Z,27.08
2022-09-04T09:02:48.091Z,27.27
2022-09-04T09:05:26.702Z,27.32
2022-09-04T09:08:18.775Z,27.38
2022-09-04T09:11:14.667Z,27.48
2022-09-04T09:14:02.491Z,27.52
2022-09-04T09:16:43.849Z,27.58
2022-09-04T09:19:15.173Z,27.69
2022-09-04T09:22:10.245Z,27.87
2022-09-04T09:24:49.362Z,28.03
2022-09-04T09:27:37.423Z,28.18
2022-09-04T09:30:10.647Z,28.20
2022-09-04T09:32:54.920Z,28.28
2022-09-04T09:35:24.224Z,28.46
2022-09-04T09:38:31.179Z,28.66
2022-09-04T09:41:34.979Z,28.83
2022-09-04T09:44:49.414Z,29.09
2022-09-04T09:47:39.456Z,29.28
2022-09-04T09:50:15.274Z,29.36
2022-09-04T09:52:59.918Z,29.44
2022-09-04T09:55:50.692Z,29.54
2022-09-04T09:58:57.422Z,29.59
2022-09-04T10:01:51.728Z,29.65
2022-09-04T10:04:46.858Z,29.73
2022-09-04T10:07:37.092Z,29.84
2022-09-04T10:10:43.659Z,29.96
2022-09-04T10:13:12.996Z,30.09
2022-09-04T10:16:13.428Z,30.19
2022-09-04T10:18:59.376Z,30.36
2022-09-04T10:22:16.963Z,30.52
2022-09-04T10:25:23.931Z,30.72
2022-09-04T10:28:30.701Z,30.86
2022-09-04T10:31:26.111Z,30.83
2022-09-04T10:34:27.157Z,30.48
2022-09-04T10:37:23.252Z,30.27
2022-09-04T10:40:44.496Z,30.05
2022-09-04T10:43:54.943Z,29.82
2022-09-04T10:46:36.648Z,29.87
2022-09-04T10:49:16.799Z,30.12
2022-09-04T10:52:17.298Z,30.67
2022-09-04T10:54:55.734Z,30.84
2022-09-04T10:58:20.311Z,30.45
2022-09-04T11:01:22.527Z,30.06
2022-09-04T11:04:29.910Z,29.92
2022-09-04T11:07:32.795Z,30.36
2022-09-04T11:10:09.716Z,30.81
2022-09-04T11:12:58.014Z,31.19
2022-09-04T11:15:54.721Z,31.38
2022-09-04T11:18:58.088Z,31.68
2022-09-04T11:21:29.317Z,31.85
2022-09-04T11:24:01.683Z,32.03
2022-09-04T11:26:46.463Z,32.26
2022-09-04T11:29:27.215Z,32.30
2022-09-04T11:32:18.967Z,32.42
2022-09-04T11:35:23.939Z,32.56
2022-09-04T11:38:43.782Z,32.59
2022-09-04T11:41:36.627Z,32.46
2022-09-04T11:44:27.782Z,32.49
2022-09-04T11:47:28.474Z,32.75
2022-09-04T11:50:27.110Z,32.75
2022-09-04T11:53:28.968Z,32.77
2022-09-04T11:56:23.214Z,32.74
2022-09-04T11:59:13.069Z,32.76
2022-09-04T12:02:00.985Z,32.70
2022-09-04T12:05:06.167Z,32.65
2022-09-04T12:08:17.324Z,32.65
2022-09-04T12:11:08.275Z,32.71
2022-09-04T12:14:12.274Z,32.72
2022-09-04T12:17:15.515Z,32.78
2022-09-04T12:19:48.382Z,32.81
2022-09-04T12:22:41.563Z,32.93
2022-09-04T12:25:13.687Z,32.95
2022-09-04T12:27:57.691Z,32.97
2022-09-04T12:30:56.327Z,32.75
2022-09-04T12:33:46.401Z,32.43
2022-09-04T12:36:34.586Z,32.20
2022-09-04T12:39:28.796Z,31.85
2022-09-04T12:42:14.643Z,31.58
2022-09-04T12:45:15.185Z,31.74
2022-09-04T12:48:18.478Z,32.10
2022-09-04T12:51:04.214Z,32.41
2022-09-04T12:53:52.952Z,32.50
2022-09-04T12:56:31.430Z,32.64
2022-09-04T12:59:16.064Z,32.63
2022-09-04T13:02:12.644Z,32.70
2022-09-04T13:05:02.507Z,32.94
2022-09-04T13:07:41.097Z,33.03
2022-09-04T13:10:33.768Z,32.93
2022-09-04T13:13:31.417Z,32.89
2022-09-04T13:16:09.886Z,32.92
2022-09-04T13:19:09.431Z,32.80
2022-09-04T13:22:08.256Z,32.63
2022-09-04T13:25:03.323Z,32.62
2022-09-04T13:27:57.425Z,32.66
2022-09-04T13:30:27.503Z,32.74
2022-09-04T13:33:14.235Z,32.75
2022-09-04T13:36:10.673Z,32.91
2022-09-04T13:39:14.084Z,32.95
2022-09-04T13:42:01.726Z,32.72
2022-09-04T13:44:41.010Z,32.70
2022-09-04T13:47:26.003Z,32.89
2022-09-04T13:50:25.077Z,33.11
2022-09-04T13:53:19.254Z,33.12
2022-09-04T13:55:57.496Z,33.20
2022-09-04T13:58:45.525Z,33.00
2022-09-04T14:01:21.863Z,32.77
2022-09-04T14:03:58.611Z,32.56
2022-09-04T14:06:32.045Z,32.43
2022-09-04T14:09:04.518Z,32.52
2022-09-04T14:12:15.573Z,32.54
2022-09-04T14:14:54.040Z,32.39
2022-09-04T14:17:30.983Z,32.05
2022-09-04T14:20:20.678Z,31.87
2022-09-04T14:23:07.924Z,31.62
2022-09-04T14:25:51.112Z,31.56
2022-09-04T14:28:37.530Z,31.69
2022-09-04T14:31:25.567Z,31.79
2022-09-04T14:34:16.115Z,31.82
2022-09-04T14:37:08.744Z,31.83
2022-09-04T14:39:50.145Z,31.73
2022-09-04T14:42:42.741Z,31.60
2022-09-04T14:45:35.764Z,31.59
2022-09-04T14:48:15.305Z,31.40
2022-09-04T14:50:54.431Z,31.26
2022-09-04T14:53:29.358Z,31.23
2022-09-04T14:56:17.791Z,31.20
2022-09-04T14:58:53.135Z,31.26
2022-09-04T15:01:25.321Z,31.24
2022-09-04T15:03:59.349Z,31.24
2022-09-04T15:07:01.076Z,31.21
2022-09-04T15:09:43.814Z,31.20
2022-09-04T15:12:31.116Z,31.13
2022-09-04T15:15:13.748Z,31.09
2022-09-04T15:17:52.958Z,31.10
2022-09-04T15:20:27.296Z,31.11
2022-09-04T15:23:27.452Z,31.14
2022-09-04T15:26:28.712Z,31.05
2022-09-04T15:29:17.476Z,30.96
2022-09-04T15:31:47.330Z,30.92
2022-09-04T15:34:29.041Z,30.87
2022-09-04T15:37:12.517Z,30.95
2022-09-04T15:40:02.425Z,30.93
2022-09-04T15:42:39.312Z,30.91
2022-09-04T15:45:20.868Z,30.83
2022-09-04T15:48:15.511Z,30.82
2022-09-04T15:51:01.579Z,30.76
2022-09-04T15:53:33.917Z,30.67
2022-09-04T15:56:18.472Z,30.67
2022-09-04T15:58:55.247Z,30.64
2022-09-04T16:01:30.278Z,30.66
2022-09-04T16:04:12.775Z,30.63
2022-09-04T16:07:32.996Z,30.59
2022-09-04T16:10:07.156Z,30.53
2022-09-04T16:12:43.448Z,30.54
2022-09-04T16:15:25.590Z,30.54
2022-09-04T16:17:57.809Z,30.44
2022-09-04T16:20:36.572Z,30.39
2022-09-04T16:23:15.125Z,30.42
2022-09-04T16:25:53.524Z,30.41
2022-09-04T16:28:33.002Z,30.37
2022-09-04T16:31:09.031Z,30.36
2022-09-04T16:33:40.722Z,30.27
2022-09-04T16:36:23.756Z,30.18
2022-09-04T16:39:11.793Z,30.17
2022-09-04T16:41:51.181Z,30.15
2022-09-04T16:44:22.112Z,30.12
2022-09-04T16:47:13.868Z,30.10
2022-09-04T16:50:13.497Z,30.03
2022-09-04T16:52:58.817Z,30.02
2022-09-04T16:55:49.378Z,29.95
2022-09-04T16:58:49.395Z,29.96
2022-09-04T17:01:32.228Z,29.90
2022-09-04T17:04:23.698Z,29.84
2022-09-04T17:07:13.225Z,29.73
2022-09-04T17:10:15.315Z,29.69
2022-09-04T17:12:52.643Z,29.59
2022-09-04T17:15:53.923Z,29.49
2022-09-04T17:18:26.440Z,29.42
2022-09-04T17:26:36.001Z,29.34
2022-09-04T17:28:59.508Z,29.19
2022-09-04T17:29:09.736Z,29.06
2022-09-04T17:30:42.713Z,28.89
2022-09-04T17:36:43.083Z,28.77
2022-09-04T17:40:55.090Z,28.68
2022-09-04T17:41:29.613Z,28.57
2022-09-04T17:42:37.302Z,28.40
2022-09-04T17:45:17.305Z,28.25
2022-09-04T17:47:46.795Z,28.13
2022-09-04T17:50:22.645Z,28.00
2022-09-04T17:53:17.712Z,27.85
2022-09-04T17:56:06.791Z,27.66
2022-09-04T17:58:51.471Z,27.55
2022-09-04T18:01:33.677Z,27.42
2022-09-04T18:04:22.470Z,27.29
2022-09-04T18:07:44.737Z,27.12
2022-09-04T18:10:24.963Z,26.97
2022-09-04T18:13:06.500Z,26.83
2022-09-04T18:15:43.994Z,26.69
2022-09-04T18:18:41.147Z,26.55
2022-09-04T18:21:23.987Z,26.37
2022-09-04T18:24:00.459Z,26.21
2022-09-04T18:26:50.207Z,26.03
2022-09-04T18:30:06.629Z,25.89
2022-09-04T18:37:17.026Z,25.71
2022-09-04T18:37:25.323Z,25.52
2022-09-04T18:38:35.241Z,25.37
2022-09-04T18:45:09.937Z,25.23
2022-09-04T18:50:23.593Z,25.09
2022-09-04T18:50:49.244Z,24.94
2022-09-04T18:53:28.193Z,24.67
2022-09-04T18:56:20.480Z,24.56
2022-09-04T18:59:05.838Z,24.41
2022-09-04T19:01:50.572Z,24.31
2022-09-04T19:04:36.096Z,24.21
2022-09-04T19:07:14.499Z,24.09
2022-09-04T19:10:21.616Z,23.99
2022-09-04T19:12:54.023Z,23.86
2022-09-04T19:15:37.767Z,23.76
2022-09-04T19:18:20.498Z,23.67
2022-09-04T19:20:58.136Z,23.57
2022-09-04T19:23:36.584Z,23.50
2022-09-04T19:26:21.326Z,23.41
2022-09-04T19:28:58.737Z,23.32
2022-09-04T19:31:44.172Z,23.25
2022-09-04T19:34:25.703Z,23.16
2022-09-04T19:37:30.123Z,23.07
2022-09-04T19:46:01.809Z,22.96
2022-09-04T19:46:15.284Z,22.89
2022-09-04T19:46:42.021Z,22.79
2022-09-04T19:53:22.753Z,22.68
2022-09-04T19:53:29.900Z,22.57
2022-09-04T19:55:49.258Z,22.48
2022-09-04T19:58:26.264Z,22.41
2022-09-04T20:01:04.284Z,22.29
2022-09-04T20:03:50.165Z,22.29
2022-09-04T20:06:26.042Z,22.23
2022-09-04T20:09:33.110Z,22.14
2022-09-04T20:12:19.577Z,22.01
2022-09-04T20:14:56.169Z,21.96
2022-09-04T20:17:47.498Z,21.90
2022-09-04T20:20:26.010Z,21.82
2022-09-04T20:22:58.653Z,21.76
2022-09-04T20:25:31.879Z,21.71
2022-09-04T20:28:35.125Z,21.65
2022-09-04T20:31:35.569Z,21.61
2022-09-04T20:34:02.280Z,21.54
2022-09-04T20:36:41.014Z,21.48
2022-09-04T20:39:35.351Z,21.42
2022-09-04T20:42:21.037Z,21.36
2022-09-04T20:46:40.194Z,21.29
2022-09-04T20:52:49.482Z,21.23
2022-09-04T20:52:58.419Z,21.17
2022-09-04T20:54:08.978Z,21.14
2022-09-04T21:00:36.599Z,21.09
2022-09-04T21:03:08.103Z,21.02
2022-09-04T21:03:32.662Z,20.96
2022-09-04T21:06:25.383Z,20.88
2022-09-04T21:09:08.743Z,20.83
2022-09-04T21:11:43.952Z,20.80
2022-09-04T21:14:27.023Z,20.74
2022-09-04T21:17:33.326Z,20.73
2022-09-04T21:20:28.828Z,20.68
2022-09-04T21:23:07.615Z,20.63
2022-09-04T21:26:06.663Z,20.61
2022-09-04T21:28:42.071Z,20.57
2022-09-04T21:31:22.707Z,20.54
2022-09-04T21:34:20.752Z,20.49
2022-09-04T21:37:03.701Z,20.45
2022-09-04T21:40:43.249Z,20.33
2022-09-04T21:43:36.219Z,20.27
2022-09-04T21:46:35.032Z,20.25
2022-09-04T21:49:27.763Z,20.25
2022-09-04T21:52:17.863Z,20.23
2022-09-04T21:56:16.069Z,20.21
2022-09-04T22:02:35.109Z,20.16
2022-09-04T22:02:49.281Z,20.16
2022-09-04T22:04:25.539Z,20.15
2022-09-04T22:10:55.975Z,20.08
2022-09-04T22:13:38.392Z,20.18
2022-09-04T22:13:40.553Z,20.12
2022-09-04T22:16:29.675Z,20.22
2022-09-04T22:19:18.735Z,20.20
2022-09-04T22:22:03.434Z,20.23
2022-09-04T22:25:12.212Z,20.27
2022-09-04T22:28:26.223Z,20.25
2022-09-04T22:31:10.385Z,20.24
2022-09-04T22:34:16.226Z,20.30
2022-09-04T22:37:04.742Z,20.33
2022-09-04T22:39:57.516Z,20.34
2022-09-04T22:42:39.931Z,20.34
2022-09-04T22:45:44.055Z,20.35
2022-09-04T22:48:20.007Z,20.35
2022-09-04T22:51:21.689Z,20.37
2022-09-04T22:54:04.348Z,20.39
2022-09-04T22:56:59.899Z,20.40
2022-09-04T22:59:56.315Z,20.39
2022-09-04T23:06:30.749Z,20.40
2022-09-04T23:13:44.079Z,20.34
2022-09-04T23:13:57.901Z,20.30
2022-09-04T23:15:33.847Z,20.26
2022-09-04T23:20:18.946Z,20.25
2022-09-04T23:26:43.575Z,20.22
2022-09-04T23:26:54.019Z,20.23
2022-09-04T23:28:27.292Z,20.17
2022-09-04T23:31:10.511Z,20.11
2022-09-04T23:34:01.980Z,20.10
2022-09-04T23:36:53.185Z,20.09
2022-09-04T23:40:05.949Z,20.04
2022-09-04T23:42:52.006Z,20.02
2022-09-04T23:45:27.012Z,20.02
2022-09-04T23:48:13.312Z,19.97
2022-09-04T23:51:01.671Z,19.91
2022-09-04T23:53:46.553Z,19.90
2022-09-04T23:56:21.843Z,19.91
2022-09-04T23:59:21.250Z,19.87
